»·PEaware :: N364KQ KBLH-KSBD

N364KQ :: KBLH-KSBD

FLIGHT INFORMATION

Flight Status: Arrived
Operator: Privately registered:
United States
More flights under this callsign
Pilot: Brian K. (18535)
Aircraft: CESSNA 172 SKYHAWK
(C172)
More flights by this aircraft type
Origin: KBLH Blythe
United States
Destination: KSBD San Bernardino Intl
United States
More flights between these airports :: More routes between these airports
Route: +
File this flight plan on PilotEdge
Remarks:
Altitude:
(Current/Filed)
4,500ft
Speed:
(Current/Filed)
0kts
Departed: 01-Apr-18 11:29 AM
Arrived: 01-Apr-18 12:16 PM
Distance/Time
Traveled:
128nm/0:47
Distance/Time
To Go:
Arrived

Flight Plot

Page will automatically refresh every two minutes.

Flight plan parsing failed; only flown route is shown


Map Options




Map Legend


Flown Route
Filed Route
Departure Airport
Arrival Airport
Navaid (VOR, NDB)
Fix

Horizontal Profiles

Position Reports

Time Latitude Longitude Heading Altitude Ground
Speed
01-Apr-18 11:27 33.674909 -115.894943 282 4414ft 105kts
01-Apr-18 11:28 33.679139 -115.928900 282 4409ft 105kts
01-Apr-18 11:29 33.686118 -115.962389 284 4436ft 104kts
01-Apr-18 11:30 33.693240 -115.995978 285 4482ft 104kts
01-Apr-18 11:31 33.699719 -116.029526 288 4509ft 105kts
01-Apr-18 11:32 33.710346 -116.061526 290 4527ft 104kts
01-Apr-18 11:33 33.721318 -116.093611 295 4520ft 104kts
01-Apr-18 11:34 33.732619 -116.125365 294 4513ft 104kts
01-Apr-18 11:35 33.744470 -116.157025 300 4507ft 104kts
01-Apr-18 11:36 33.759037 -116.186937 300 4502ft 104kts
01-Apr-18 11:37 33.771298 -116.218146 293 4498ft 104kts
01-Apr-18 11:38 33.782876 -116.249873 303 4491ft 104kts
01-Apr-18 11:39 33.797754 -116.278892 300 4486ft 104kts
01-Apr-18 11:40 33.809707 -116.307520 300 4567ft 94kts
01-Apr-18 11:41 33.821774 -116.332464 300 4574ft 89kts
01-Apr-18 11:42 33.833935 -116.358502 299 4518ft 91kts
01-Apr-18 11:43 33.845619 -116.384234 296 4497ft 90kts
01-Apr-18 11:44 33.853796 -116.406328 296 4493ft 86kts
01-Apr-18 11:45 33.865923 -116.431513 303 4433ft 89kts
01-Apr-18 11:46 33.872842 -116.458650 284 4384ft 90kts
01-Apr-18 11:47 33.877132 -116.484691 286 4346ft 92kts
01-Apr-18 11:48 33.883881 -116.513086 287 4388ft 87kts
01-Apr-18 11:49 33.888138 -116.542370 278 4391ft 91kts
01-Apr-18 11:50 33.894773 -116.569315 294 4401ft 89kts
01-Apr-18 11:51 33.904579 -116.596369 293 4404ft 91kts
01-Apr-18 11:52 33.911820 -116.624764 284 4422ft 92kts
01-Apr-18 11:53 33.916842 -116.652705 284 4468ft 89kts
01-Apr-18 11:54 33.921616 -116.678221 285 4476ft 91kts
01-Apr-18 11:55 33.926694 -116.703696 284 4527ft 90kts
01-Apr-18 11:56 33.930092 -116.732899 272 4568ft 90kts
01-Apr-18 11:57 33.929647 -116.763327 283 4598ft 88kts
01-Apr-18 11:58 33.931861 -116.792686 269 4614ft 92kts
01-Apr-18 11:59 33.926634 -116.824276 268 4555ft 101kts
01-Apr-18 12:00 33.931508 -116.855850 277 4575ft 101kts
01-Apr-18 12:01 33.934849 -116.886261 278 4593ft 102kts
01-Apr-18 12:02 33.939748 -116.918104 281 4329ft 102kts
01-Apr-18 12:03 33.947178 -116.951059 288 3935ft 103kts
01-Apr-18 12:04 33.958907 -116.981945 295 3561ft 103kts
01-Apr-18 12:05 33.972293 -117.009547 300 3523ft 100kts
01-Apr-18 12:06 33.985375 -117.039526 306 3447ft 103kts
01-Apr-18 12:07 34.007327 -117.056351 336 3405ft 100kts
01-Apr-18 12:08 34.027644 -117.077991 305 3317ft 101kts
01-Apr-18 12:09 34.042805 -117.103995 307 3019ft 103kts
01-Apr-18 12:10 34.061132 -117.129213 310 2592ft 102kts
01-Apr-18 12:11 34.078671 -117.148727 322 2278ft 85kts
01-Apr-18 12:12 34.096552 -117.166564 311 2001ft 83kts
01-Apr-18 12:13 34.106635 -117.186784 283 1810ft 71kts
01-Apr-18 12:14 34.103658 -117.206250 253 1477ft 62kts
01-Apr-18 12:15 34.098826 -117.223357 283 1136ft 31kts
01-Apr-18 12:16 34.099120 -117.224959 295 1136ft 0kts
01-Apr-18 12:17 34.099873 -117.225617 54 1136ft 11kts
01-Apr-18 12:18 34.102193 -117.225009 16 1136ft 13kts
01-Apr-18 12:19 34.102387 -117.224607 71 1136ft 0kts

Navigation Log

Ident Type
Flight plan parsing failed, navigation log unavailable